FHA77H LIPZ-EDDL
Flight info
| Callsign | FHA77H |
|---|---|
| Flight time | 1h 15m |
| Altitude | 38000 |
| Route | ROKIB8X/04R ROKIB DCT SUMIR DCT UNIMI DCT MOGTI DCT KPT L608 TEDGO DCT HAREM DCT LOHRE Z850 ARPEG Z850 ADEMI T854 DOMUX |
| Aircraft | B738/M-SDE2E3FGHIRWXY/LB1 |
Departure
| Time | 2026-05-06 14:07 |
|---|---|
| Airport | Venice Marco Polo Airport (LIPZ) |
Arrival
| Time | 2026-05-06 15:22 |
|---|---|
| Airport | Düsseldorf Airport (EDDL) |
| Time | Latitude | Longitude | Altitude | Speed | Heading |
|---|---|---|---|---|---|
| 2026-05-06 13:22 | 45.50552 | 12.34224 | 15 ft | 0 kts | 267° |
| 2026-05-06 13:56 | 45.50552 | 12.34238 | 15 ft | 4 kts | 267° |
| 2026-05-06 13:56 | 45.50553 | 12.34276 | 15 ft | 4 kts | 267° |
| 2026-05-06 13:56 | 45.50554 | 12.34308 | 15 ft | 3 kts | 266° |
| 2026-05-06 13:56 | 45.50561 | 12.34335 | 15 ft | 4 kts | 198° |
| 2026-05-06 13:57 | 45.50585 | 12.34336 | 16 ft | 4 kts | 177° |
| 2026-05-06 13:57 | 45.50594 | 12.34336 | 17 ft | 0 kts | 177° |
| 2026-05-06 13:59 | 45.50580 | 12.34337 | 16 ft | 3 kts | 177° |
| 2026-05-06 14:00 | 45.50544 | 12.34339 | 27 ft | 7 kts | 177° |
| 2026-05-06 14:00 | 45.50475 | 12.34343 | 15 ft | 12 kts | 177° |
| 2026-05-06 14:00 | 45.50373 | 12.34350 | 15 ft | 16 kts | 177° |
| 2026-05-06 14:00 | 45.50260 | 12.34357 | 15 ft | 16 kts | 177° |
| 2026-05-06 14:01 | 45.50162 | 12.34361 | 16 ft | 12 kts | 188° |
| 2026-05-06 14:01 | 45.50093 | 12.34298 | 14 ft | 13 kts | 222° |
| 2026-05-06 14:01 | 45.50008 | 12.34189 | 13 ft | 20 kts | 222° |
| 2026-05-06 14:01 | 45.49889 | 12.34036 | 13 ft | 26 kts | 222° |
| 2026-05-06 14:02 | 45.49752 | 12.33859 | 14 ft | 26 kts | 222° |
| 2026-05-06 14:02 | 45.49623 | 12.33693 | 16 ft | 24 kts | 222° |
| 2026-05-06 14:02 | 45.49544 | 12.33600 | 16 ft | 8 kts | 203° |
| 2026-05-06 14:02 | 45.49510 | 12.33607 | 16 ft | 1 kts | 150° |
| 2026-05-06 14:03 | 45.49507 | 12.33609 | 16 ft | 0 kts | 146° |
| 2026-05-06 14:05 | 45.49504 | 12.33613 | 16 ft | 3 kts | 142° |
| 2026-05-06 14:05 | 45.49474 | 12.33655 | 15 ft | 9 kts | 133° |
| 2026-05-06 14:05 | 45.49429 | 12.33725 | 14 ft | 10 kts | 132° |
| 2026-05-06 14:06 | 45.49420 | 12.33781 | 14 ft | 4 kts | 59° |
| 2026-05-06 14:06 | 45.49429 | 12.33794 | 16 ft | 0 kts | 43° |
| 2026-05-06 14:07 | 45.49447 | 12.33818 | 14 ft | 23 kts | 42° |
| 2026-05-06 14:07 | 45.49773 | 12.34237 | 12 ft | 102 kts | 42° |
| 2026-05-06 14:07 | 45.50464 | 12.35149 | 105 ft | 157 kts | 45° |
| 2026-05-06 14:07 | 45.51285 | 12.36233 | 771 ft | 168 kts | 46° |
| 2026-05-06 14:08 | 45.52166 | 12.37416 | 1491 ft | 179 kts | 47° |
| 2026-05-06 14:08 | 45.53035 | 12.38658 | 2352 ft | 174 kts | 46° |
| 2026-05-06 14:08 | 45.53676 | 12.40101 | 2949 ft | 178 kts | 86° |
| 2026-05-06 14:08 | 45.53547 | 12.41873 | 3426 ft | 193 kts | 103° |
| 2026-05-06 14:09 | 45.53323 | 12.43899 | 3813 ft | 214 kts | 102° |
| 2026-05-06 14:09 | 45.53103 | 12.46013 | 4332 ft | 223 kts | 101° |
| 2026-05-06 14:09 | 45.52715 | 12.48195 | 4782 ft | 233 kts | 124° |
| 2026-05-06 14:09 | 45.51504 | 12.49638 | 5315 ft | 228 kts | 166° |
| 2026-05-06 14:10 | 45.49960 | 12.49742 | 5938 ft | 225 kts | 197° |
| 2026-05-06 14:10 | 45.48601 | 12.48686 | 6717 ft | 223 kts | 225° |
| 2026-05-06 14:10 | 45.47813 | 12.46824 | 7485 ft | 227 kts | 253° |
| 2026-05-06 14:10 | 45.47782 | 12.44550 | 8295 ft | 234 kts | 275° |
| 2026-05-06 14:11 | 45.48155 | 12.42247 | 8864 ft | 251 kts | 280° |
| 2026-05-06 14:11 | 45.48646 | 12.39721 | 9211 ft | 273 kts | 282° |
| 2026-05-06 14:11 | 45.49580 | 12.37279 | 9929 ft | 289 kts | 306° |
| 2026-05-06 14:11 | 45.50967 | 12.35143 | 10410 ft | 308 kts | 309° |
| 2026-05-06 14:12 | 45.52514 | 12.32855 | 10699 ft | 330 kts | 309° |
| 2026-05-06 14:12 | 45.54133 | 12.30465 | 11379 ft | 338 kts | 309° |
| 2026-05-06 14:12 | 45.55757 | 12.28042 | 12199 ft | 342 kts | 309° |
| 2026-05-06 14:12 | 45.57409 | 12.25548 | 13024 ft | 347 kts | 308° |
| 2026-05-06 14:13 | 45.59080 | 12.23000 | 13873 ft | 353 kts | 308° |
| 2026-05-06 14:13 | 45.60748 | 12.20442 | 14646 ft | 357 kts | 308° |
| 2026-05-06 14:13 | 45.62442 | 12.17835 | 15487 ft | 359 kts | 308° |
| 2026-05-06 14:13 | 45.64159 | 12.15188 | 16292 ft | 363 kts | 308° |
| 2026-05-06 14:14 | 45.65888 | 12.12519 | 17044 ft | 368 kts | 307° |
| 2026-05-06 14:14 | 45.67619 | 12.09842 | 17788 ft | 372 kts | 307° |
| 2026-05-06 14:14 | 45.69392 | 12.07099 | 18465 ft | 377 kts | 307° |
| 2026-05-06 14:14 | 45.71170 | 12.04335 | 19133 ft | 379 kts | 307° |
| 2026-05-06 14:15 | 45.72969 | 12.01532 | 19839 ft | 381 kts | 307° |
| 2026-05-06 14:15 | 45.74756 | 11.98747 | 20550 ft | 383 kts | 306° |
| 2026-05-06 14:15 | 45.76556 | 11.95937 | 21211 ft | 387 kts | 306° |
| 2026-05-06 14:15 | 45.78393 | 11.93067 | 21868 ft | 390 kts | 306° |
| 2026-05-06 14:16 | 45.80219 | 11.90211 | 22529 ft | 393 kts | 305° |
| 2026-05-06 14:16 | 45.82090 | 11.87282 | 23190 ft | 396 kts | 305° |
| 2026-05-06 14:16 | 45.83937 | 11.84389 | 23763 ft | 399 kts | 305° |
| 2026-05-06 14:16 | 45.85829 | 11.81419 | 24297 ft | 402 kts | 305° |
| 2026-05-06 14:17 | 45.87706 | 11.78472 | 24777 ft | 405 kts | 304° |
| 2026-05-06 14:17 | 45.89631 | 11.75448 | 25290 ft | 409 kts | 304° |
| 2026-05-06 14:17 | 45.91537 | 11.72451 | 25838 ft | 411 kts | 304° |
| 2026-05-06 14:17 | 45.93514 | 11.69429 | 26338 ft | 417 kts | 308° |
| 2026-05-06 14:18 | 45.95756 | 11.66781 | 26736 ft | 428 kts | 316° |
| 2026-05-06 14:18 | 45.98209 | 11.64274 | 27098 ft | 433 kts | 317° |
| 2026-05-06 14:18 | 46.00682 | 11.61818 | 27317 ft | 437 kts | 317° |
| 2026-05-06 14:18 | 46.03197 | 11.59310 | 27773 ft | 438 kts | 317° |
| 2026-05-06 14:19 | 46.05697 | 11.56795 | 28357 ft | 439 kts | 316° |
| 2026-05-06 14:19 | 46.08206 | 11.54243 | 28752 ft | 443 kts | 316° |
| 2026-05-06 14:19 | 46.10712 | 11.51674 | 29219 ft | 446 kts | 316° |
| 2026-05-06 14:19 | 46.13232 | 11.49081 | 29688 ft | 448 kts | 316° |
| 2026-05-06 14:20 | 46.15488 | 11.46756 | 30096 ft | 450 kts | 315° |
| 2026-05-06 14:20 | 46.18044 | 11.44120 | 30501 ft | 452 kts | 315° |
| 2026-05-06 14:20 | 46.20612 | 11.41469 | 30884 ft | 454 kts | 315° |
| 2026-05-06 14:20 | 46.23187 | 11.38809 | 31136 ft | 456 kts | 315° |
| 2026-05-06 14:21 | 46.25882 | 11.36288 | 31404 ft | 465 kts | 322° |
| 2026-05-06 14:21 | 46.28836 | 11.34357 | 31774 ft | 476 kts | 332° |
| 2026-05-06 14:21 | 46.31994 | 11.32793 | 32219 ft | 476 kts | 333° |
| 2026-05-06 14:21 | 46.35117 | 11.31339 | 32678 ft | 476 kts | 334° |
| 2026-05-06 14:22 | 46.38302 | 11.29872 | 33070 ft | 476 kts | 334° |
| 2026-05-06 14:22 | 46.41423 | 11.28415 | 33465 ft | 475 kts | 333° |
| 2026-05-06 14:22 | 46.44575 | 11.26917 | 33891 ft | 474 kts | 333° |
| 2026-05-06 14:22 | 46.47713 | 11.25403 | 34225 ft | 473 kts | 333° |
| 2026-05-06 14:23 | 46.50807 | 11.23893 | 34487 ft | 473 kts | 333° |
| 2026-05-06 14:23 | 46.53934 | 11.22362 | 34889 ft | 470 kts | 333° |
| 2026-05-06 14:23 | 46.56990 | 11.20863 | 35343 ft | 466 kts | 334° |
| 2026-05-06 14:23 | 46.60067 | 11.19353 | 35730 ft | 464 kts | 334° |
| 2026-05-06 14:24 | 46.63133 | 11.17844 | 36055 ft | 464 kts | 334° |
| 2026-05-06 14:24 | 46.66172 | 11.16348 | 36371 ft | 463 kts | 334° |
| 2026-05-06 14:24 | 46.69226 | 11.14843 | 36751 ft | 462 kts | 335° |
| 2026-05-06 14:24 | 46.72272 | 11.13342 | 37057 ft | 458 kts | 335° |
| 2026-05-06 14:25 | 46.75267 | 11.11861 | 37303 ft | 458 kts | 335° |
| 2026-05-06 14:25 | 46.78299 | 11.10364 | 37420 ft | 459 kts | 335° |
| 2026-05-06 14:25 | 46.81336 | 11.08863 | 37714 ft | 459 kts | 336° |
| 2026-05-06 14:25 | 46.84371 | 11.07360 | 37849 ft | 460 kts | 336° |
| 2026-05-06 14:26 | 46.89724 | 11.04329 | 37839 ft | 456 kts | 331° |
| 2026-05-06 14:26 | 46.95469 | 11.00510 | 37822 ft | 451 kts | 329° |
| 2026-05-06 14:27 | 47.01160 | 10.96685 | 37810 ft | 449 kts | 330° |
| 2026-05-06 14:27 | 47.06872 | 10.92899 | 37808 ft | 454 kts | 330° |
| 2026-05-06 14:28 | 47.12701 | 10.89061 | 37743 ft | 464 kts | 331° |
| 2026-05-06 14:28 | 47.18598 | 10.85175 | 37771 ft | 463 kts | 332° |
| 2026-05-06 14:29 | 47.24429 | 10.81319 | 37787 ft | 461 kts | 331° |
| 2026-05-06 14:29 | 47.30281 | 10.77436 | 37788 ft | 460 kts | 331° |
| 2026-05-06 14:30 | 47.36127 | 10.73550 | 37785 ft | 459 kts | 331° |
| 2026-05-06 14:30 | 47.41682 | 10.69098 | 37779 ft | 450 kts | 321° |
| 2026-05-06 14:31 | 47.46758 | 10.63839 | 37824 ft | 447 kts | 320° |
| 2026-05-06 14:31 | 47.51843 | 10.58501 | 37814 ft | 449 kts | 320° |
| 2026-05-06 14:32 | 47.56963 | 10.53205 | 37818 ft | 448 kts | 320° |
| 2026-05-06 14:32 | 47.62085 | 10.47937 | 37819 ft | 448 kts | 320° |
| 2026-05-06 14:33 | 47.67187 | 10.42676 | 37831 ft | 449 kts | 320° |
| 2026-05-06 14:33 | 47.72337 | 10.37349 | 37828 ft | 451 kts | 320° |
| 2026-05-06 14:34 | 47.77374 | 10.31846 | 37821 ft | 450 kts | 316° |
| 2026-05-06 14:34 | 47.82202 | 10.25921 | 37813 ft | 450 kts | 315° |
| 2026-05-06 14:35 | 47.87000 | 10.19949 | 37804 ft | 452 kts | 315° |
| 2026-05-06 14:35 | 47.91860 | 10.13960 | 37809 ft | 452 kts | 316° |
| 2026-05-06 14:36 | 47.96710 | 10.08009 | 37816 ft | 453 kts | 316° |
| 2026-05-06 14:36 | 48.01559 | 10.02052 | 37808 ft | 452 kts | 316° |
| 2026-05-06 14:37 | 48.06403 | 9.96085 | 37789 ft | 451 kts | 316° |
| 2026-05-06 14:37 | 48.11119 | 9.90258 | 37779 ft | 451 kts | 316° |
| 2026-05-06 14:38 | 48.15936 | 9.84291 | 37773 ft | 450 kts | 316° |
| 2026-05-06 14:38 | 48.20738 | 9.78328 | 37785 ft | 449 kts | 316° |
| 2026-05-06 14:39 | 48.25536 | 9.72354 | 37768 ft | 449 kts | 316° |
| 2026-05-06 14:39 | 48.30361 | 9.66331 | 37782 ft | 449 kts | 316° |
| 2026-05-06 14:40 | 48.35126 | 9.60359 | 37784 ft | 449 kts | 315° |
| 2026-05-06 14:40 | 48.39878 | 9.54265 | 37805 ft | 450 kts | 315° |
| 2026-05-06 14:41 | 48.44628 | 9.48132 | 37801 ft | 451 kts | 315° |
| 2026-05-06 14:41 | 48.48611 | 9.42989 | 37801 ft | 452 kts | 315° |
| 2026-05-06 14:42 | 48.53389 | 9.36813 | 37806 ft | 454 kts | 315° |
| 2026-05-06 14:42 | 48.59022 | 9.29623 | 37809 ft | 458 kts | 322° |
| 2026-05-06 14:43 | 48.60873 | 9.28005 | 37796 ft | 464 kts | 333° |
| 2026-05-06 14:43 | 48.63984 | 9.26562 | 37813 ft | 472 kts | 348° |
| 2026-05-06 14:43 | 48.67247 | 9.26416 | 37804 ft | 477 kts | 4° |
| 2026-05-06 14:43 | 48.70568 | 9.26944 | 37811 ft | 477 kts | 5° |
| 2026-05-06 14:44 | 48.77180 | 9.28126 | 37807 ft | 478 kts | 5° |
| 2026-05-06 14:45 | 48.87060 | 9.29758 | 37798 ft | 477 kts | 4° |
| 2026-05-06 14:45 | 48.93682 | 9.30778 | 37800 ft | 477 kts | 4° |
| 2026-05-06 14:46 | 49.00262 | 9.31785 | 37793 ft | 476 kts | 4° |
| 2026-05-06 14:46 | 49.06842 | 9.32798 | 37806 ft | 476 kts | 4° |
| 2026-05-06 14:47 | 49.13418 | 9.33817 | 37792 ft | 475 kts | 4° |
| 2026-05-06 14:47 | 49.20000 | 9.34840 | 37802 ft | 475 kts | 4° |
| 2026-05-06 14:48 | 49.26550 | 9.35860 | 37806 ft | 475 kts | 4° |
| 2026-05-06 14:48 | 49.33150 | 9.36891 | 37788 ft | 474 kts | 4° |
| 2026-05-06 14:49 | 49.39699 | 9.37917 | 37788 ft | 474 kts | 4° |
| 2026-05-06 14:49 | 49.46213 | 9.38940 | 37795 ft | 473 kts | 4° |
| 2026-05-06 14:50 | 49.52769 | 9.39973 | 37790 ft | 472 kts | 4° |
| 2026-05-06 14:50 | 49.59279 | 9.41001 | 37782 ft | 471 kts | 4° |
| 2026-05-06 14:51 | 49.65775 | 9.42031 | 37782 ft | 469 kts | 4° |
| 2026-05-06 14:51 | 49.71644 | 9.42966 | 37780 ft | 468 kts | 4° |
| 2026-05-06 14:52 | 49.78117 | 9.44000 | 37772 ft | 467 kts | 4° |
| 2026-05-06 14:52 | 49.84589 | 9.45037 | 37772 ft | 466 kts | 4° |
| 2026-05-06 14:53 | 49.91010 | 9.46068 | 37778 ft | 465 kts | 4° |
| 2026-05-06 14:53 | 49.97444 | 9.47104 | 37723 ft | 466 kts | 4° |
| 2026-05-06 14:53 | 50.00673 | 9.47624 | 37425 ft | 472 kts | 4° |
| 2026-05-06 14:54 | 50.03943 | 9.47792 | 37138 ft | 468 kts | 351° |
| 2026-05-06 14:54 | 50.07085 | 9.46730 | 36879 ft | 457 kts | 337° |
| 2026-05-06 14:54 | 50.09929 | 9.44654 | 36614 ft | 445 kts | 323° |
| 2026-05-06 14:54 | 50.12384 | 9.41772 | 36372 ft | 438 kts | 316° |
| 2026-05-06 14:55 | 50.14695 | 9.38772 | 36130 ft | 436 kts | 316° |
| 2026-05-06 14:55 | 50.17023 | 9.35716 | 35885 ft | 435 kts | 316° |
| 2026-05-06 14:55 | 50.17804 | 9.34694 | 35798 ft | 434 kts | 316° |
| 2026-05-06 14:55 | 50.19096 | 9.33014 | 35656 ft | 434 kts | 316° |
| 2026-05-06 14:56 | 50.21099 | 9.30432 | 35444 ft | 433 kts | 316° |
| 2026-05-06 14:56 | 50.23380 | 9.27514 | 35074 ft | 435 kts | 317° |
| 2026-05-06 14:56 | 50.25707 | 9.24551 | 34741 ft | 433 kts | 317° |
| 2026-05-06 14:56 | 50.28046 | 9.21580 | 34430 ft | 426 kts | 317° |
| 2026-05-06 14:57 | 50.30300 | 9.18713 | 34121 ft | 420 kts | 316° |
| 2026-05-06 14:57 | 50.32561 | 9.15831 | 33817 ft | 415 kts | 316° |
| 2026-05-06 14:57 | 50.34793 | 9.12979 | 33454 ft | 412 kts | 316° |
| 2026-05-06 14:57 | 50.37014 | 9.10142 | 33111 ft | 409 kts | 316° |
| 2026-05-06 14:58 | 50.39193 | 9.07360 | 32765 ft | 407 kts | 316° |
| 2026-05-06 14:58 | 50.41396 | 9.04544 | 32426 ft | 404 kts | 316° |
| 2026-05-06 14:58 | 50.43545 | 9.01793 | 32117 ft | 402 kts | 316° |
| 2026-05-06 14:58 | 50.45720 | 8.99006 | 31797 ft | 400 kts | 316° |
| 2026-05-06 14:59 | 50.47871 | 8.96245 | 31494 ft | 399 kts | 316° |
| 2026-05-06 14:59 | 50.50019 | 8.93484 | 31188 ft | 397 kts | 316° |
| 2026-05-06 14:59 | 50.52134 | 8.90762 | 30892 ft | 396 kts | 316° |
| 2026-05-06 14:59 | 50.54292 | 8.88028 | 30592 ft | 396 kts | 318° |
| 2026-05-06 15:00 | 50.56450 | 8.85417 | 30329 ft | 395 kts | 319° |
| 2026-05-06 15:00 | 50.58635 | 8.82822 | 30059 ft | 393 kts | 319° |
| 2026-05-06 15:00 | 50.60829 | 8.80221 | 29785 ft | 392 kts | 319° |
| 2026-05-06 15:00 | 50.63019 | 8.77616 | 29463 ft | 391 kts | 319° |
| 2026-05-06 15:01 | 50.65154 | 8.75063 | 29155 ft | 389 kts | 318° |
| 2026-05-06 15:01 | 50.67320 | 8.72463 | 28844 ft | 387 kts | 318° |
| 2026-05-06 15:01 | 50.69432 | 8.69919 | 28542 ft | 385 kts | 318° |
| 2026-05-06 15:01 | 50.71569 | 8.67340 | 28240 ft | 383 kts | 318° |
| 2026-05-06 15:02 | 50.73663 | 8.64807 | 27954 ft | 380 kts | 318° |
| 2026-05-06 15:02 | 50.75740 | 8.62292 | 27687 ft | 377 kts | 318° |
| 2026-05-06 15:02 | 50.77818 | 8.59773 | 27416 ft | 374 kts | 318° |
| 2026-05-06 15:02 | 50.79881 | 8.57269 | 27149 ft | 371 kts | 318° |
| 2026-05-06 15:03 | 50.81910 | 8.54803 | 26898 ft | 368 kts | 318° |
| 2026-05-06 15:03 | 50.83945 | 8.52326 | 26629 ft | 366 kts | 318° |
| 2026-05-06 15:03 | 50.85941 | 8.49895 | 26380 ft | 364 kts | 318° |
| 2026-05-06 15:03 | 50.87949 | 8.47446 | 26123 ft | 362 kts | 318° |
| 2026-05-06 15:04 | 50.89919 | 8.45042 | 25911 ft | 359 kts | 318° |
| 2026-05-06 15:04 | 50.91897 | 8.42623 | 25694 ft | 357 kts | 318° |
| 2026-05-06 15:04 | 50.93863 | 8.40218 | 25495 ft | 355 kts | 318° |
| 2026-05-06 15:04 | 50.95755 | 8.37723 | 25243 ft | 350 kts | 309° |
| 2026-05-06 15:05 | 50.97101 | 8.34622 | 24888 ft | 343 kts | 292° |
| 2026-05-06 15:05 | 50.97928 | 8.31111 | 24480 ft | 338 kts | 282° |
| 2026-05-06 15:05 | 50.98517 | 8.27477 | 24054 ft | 338 kts | 281° |
| 2026-05-06 15:05 | 50.99070 | 8.23890 | 23670 ft | 337 kts | 281° |
| 2026-05-06 15:06 | 50.99623 | 8.20264 | 23311 ft | 336 kts | 281° |
| 2026-05-06 15:06 | 51.00171 | 8.16692 | 22907 ft | 334 kts | 281° |
| 2026-05-06 15:06 | 51.00725 | 8.13110 | 22493 ft | 332 kts | 281° |
| 2026-05-06 15:06 | 51.01279 | 8.09539 | 22102 ft | 330 kts | 281° |
| 2026-05-06 15:07 | 51.01825 | 8.06038 | 21719 ft | 329 kts | 281° |
| 2026-05-06 15:07 | 51.02371 | 8.02540 | 21340 ft | 327 kts | 281° |
| 2026-05-06 15:07 | 51.02917 | 7.99042 | 20989 ft | 325 kts | 281° |
| 2026-05-06 15:07 | 51.03461 | 7.95553 | 20639 ft | 323 kts | 281° |
| 2026-05-06 15:08 | 51.04000 | 7.92090 | 20278 ft | 321 kts | 281° |
| 2026-05-06 15:08 | 51.04532 | 7.88663 | 19939 ft | 319 kts | 281° |
| 2026-05-06 15:08 | 51.05059 | 7.85269 | 19597 ft | 318 kts | 281° |
| 2026-05-06 15:08 | 51.05586 | 7.81861 | 19250 ft | 316 kts | 281° |
| 2026-05-06 15:09 | 51.06110 | 7.78470 | 18924 ft | 314 kts | 281° |
| 2026-05-06 15:09 | 51.06629 | 7.75105 | 18602 ft | 312 kts | 281° |
| 2026-05-06 15:09 | 51.07143 | 7.71763 | 18269 ft | 310 kts | 281° |
| 2026-05-06 15:09 | 51.07647 | 7.68480 | 17937 ft | 309 kts | 281° |
| 2026-05-06 15:10 | 51.08051 | 7.65845 | 17648 ft | 307 kts | 281° |
| 2026-05-06 15:10 | 51.08547 | 7.62604 | 17296 ft | 305 kts | 281° |
| 2026-05-06 15:10 | 51.09048 | 7.59320 | 16942 ft | 304 kts | 281° |
| 2026-05-06 15:10 | 51.09545 | 7.56060 | 16600 ft | 302 kts | 281° |
| 2026-05-06 15:11 | 51.10035 | 7.52834 | 16258 ft | 300 kts | 281° |
| 2026-05-06 15:11 | 51.10524 | 7.49616 | 15920 ft | 298 kts | 281° |
| 2026-05-06 15:11 | 51.11004 | 7.46446 | 15592 ft | 296 kts | 281° |
| 2026-05-06 15:11 | 51.11486 | 7.43255 | 15261 ft | 295 kts | 281° |
| 2026-05-06 15:12 | 51.11960 | 7.40116 | 14938 ft | 293 kts | 281° |
| 2026-05-06 15:12 | 51.12433 | 7.36973 | 14625 ft | 291 kts | 281° |
| 2026-05-06 15:12 | 51.12760 | 7.33808 | 14292 ft | 288 kts | 274° |
| 2026-05-06 15:12 | 51.12966 | 7.30678 | 13975 ft | 287 kts | 274° |
| 2026-05-06 15:13 | 51.13159 | 7.27471 | 13417 ft | 293 kts | 273° |
| 2026-05-06 15:13 | 51.13343 | 7.24233 | 12770 ft | 300 kts | 273° |
| 2026-05-06 15:13 | 51.13527 | 7.20863 | 12117 ft | 306 kts | 273° |
| 2026-05-06 15:13 | 51.13665 | 7.18219 | 11631 ft | 311 kts | 273° |
| 2026-05-06 15:14 | 51.13842 | 7.14720 | 11002 ft | 315 kts | 273° |
| 2026-05-06 15:14 | 51.14010 | 7.11248 | 10394 ft | 319 kts | 273° |
| 2026-05-06 15:14 | 51.14173 | 7.07740 | 10213 ft | 309 kts | 273° |
| 2026-05-06 15:14 | 51.14323 | 7.04438 | 10082 ft | 292 kts | 273° |
| 2026-05-06 15:15 | 51.14460 | 7.01337 | 9953 ft | 276 kts | 273° |
| 2026-05-06 15:15 | 51.14592 | 6.98281 | 9564 ft | 273 kts | 273° |
| 2026-05-06 15:15 | 51.14712 | 6.95268 | 9053 ft | 275 kts | 274° |
| 2026-05-06 15:15 | 51.14820 | 6.92238 | 8613 ft | 271 kts | 273° |
| 2026-05-06 15:16 | 51.14915 | 6.89236 | 8039 ft | 271 kts | 273° |
| 2026-05-06 15:16 | 51.14997 | 6.86265 | 7533 ft | 269 kts | 273° |
| 2026-05-06 15:16 | 51.15071 | 6.83297 | 7047 ft | 265 kts | 273° |
| 2026-05-06 15:16 | 51.15135 | 6.80390 | 6507 ft | 266 kts | 273° |
| 2026-05-06 15:17 | 51.15192 | 6.77454 | 6079 ft | 263 kts | 273° |
| 2026-05-06 15:17 | 51.15239 | 6.74542 | 5742 ft | 259 kts | 273° |
| 2026-05-06 15:17 | 51.15276 | 6.71720 | 5464 ft | 249 kts | 273° |
| 2026-05-06 15:17 | 51.15307 | 6.69012 | 5157 ft | 239 kts | 273° |
| 2026-05-06 15:18 | 51.15326 | 6.66448 | 4879 ft | 228 kts | 273° |
| 2026-05-06 15:18 | 51.15337 | 6.63975 | 4680 ft | 216 kts | 273° |
| 2026-05-06 15:18 | 51.15450 | 6.61664 | 4459 ft | 206 kts | 292° |
| 2026-05-06 15:18 | 51.16346 | 6.60027 | 4250 ft | 195 kts | 336° |
| 2026-05-06 15:19 | 51.17661 | 6.59504 | 3751 ft | 205 kts | 357° |
| 2026-05-06 15:19 | 51.19133 | 6.59785 | 3139 ft | 221 kts | 17° |
| 2026-05-06 15:19 | 51.20551 | 6.60734 | 2594 ft | 228 kts | 29° |
| 2026-05-06 15:19 | 51.21749 | 6.62327 | 2248 ft | 217 kts | 44° |
| 2026-05-06 15:20 | 51.22695 | 6.64081 | 1950 ft | 200 kts | 50° |
| 2026-05-06 15:20 | 51.23491 | 6.65778 | 1693 ft | 181 kts | 51° |
| 2026-05-06 15:20 | 51.24196 | 6.67281 | 1499 ft | 160 kts | 50° |
| 2026-05-06 15:20 | 51.24838 | 6.68621 | 1241 ft | 144 kts | 49° |
| 2026-05-06 15:21 | 51.25423 | 6.69865 | 1034 ft | 140 kts | 50° |
| 2026-05-06 15:21 | 51.26011 | 6.71106 | 846 ft | 138 kts | 49° |
| 2026-05-06 15:21 | 51.26604 | 6.72338 | 667 ft | 140 kts | 50° |
| 2026-05-06 15:21 | 51.27195 | 6.73590 | 486 ft | 142 kts | 51° |
| 2026-05-06 15:22 | 51.27796 | 6.74852 | 269 ft | 145 kts | 49° |
| 2026-05-06 15:22 | 51.28401 | 6.76130 | 142 ft | 137 kts | 51° |
| 2026-05-06 15:22 | 51.28901 | 6.77169 | 124 ft | 93 kts | 52° |
| 2026-05-06 15:22 | 51.29160 | 6.77719 | 128 ft | 30 kts | 53° |
| 2026-05-06 15:23 | 51.29248 | 6.77901 | 134 ft | 20 kts | 53° |
| 2026-05-06 15:23 | 51.29300 | 6.78062 | 138 ft | 13 kts | 89° |
| 2026-05-06 15:23 | 51.29259 | 6.78185 | 136 ft | 14 kts | 141° |
| 2026-05-06 15:23 | 51.29176 | 6.78196 | 135 ft | 13 kts | 206° |
| 2026-05-06 15:24 | 51.29109 | 6.78078 | 127 ft | 16 kts | 233° |
| 2026-05-06 15:24 | 51.29029 | 6.77907 | 129 ft | 22 kts | 233° |
| 2026-05-06 15:24 | 51.28926 | 6.77694 | 125 ft | 27 kts | 232° |
| 2026-05-06 15:24 | 51.28813 | 6.77456 | 128 ft | 26 kts | 232° |
| 2026-05-06 15:25 | 51.28704 | 6.77231 | 126 ft | 25 kts | 234° |
| 2026-05-06 15:25 | 51.28607 | 6.77022 | 125 ft | 23 kts | 233° |
| 2026-05-06 15:25 | 51.28511 | 6.76823 | 125 ft | 22 kts | 232° |
| 2026-05-06 15:25 | 51.28418 | 6.76627 | 123 ft | 22 kts | 232° |
| 2026-05-06 15:26 | 51.28328 | 6.76440 | 123 ft | 21 kts | 233° |
| 2026-05-06 15:26 | 51.28242 | 6.76258 | 127 ft | 20 kts | 232° |
| 2026-05-06 15:26 | 51.28156 | 6.76080 | 126 ft | 20 kts | 233° |
| 2026-05-06 15:26 | 51.28076 | 6.75907 | 126 ft | 17 kts | 232° |
| 2026-05-06 15:27 | 51.28011 | 6.75828 | 127 ft | 11 kts | 192° |
| 2026-05-06 15:27 | 51.27928 | 6.75819 | 128 ft | 12 kts | 182° |
| 2026-05-06 15:27 | 51.27846 | 6.75815 | 128 ft | 12 kts | 181° |
| 2026-05-06 15:27 | 51.27766 | 6.75812 | 128 ft | 11 kts | 181° |
| 2026-05-06 15:28 | 51.27688 | 6.75811 | 127 ft | 11 kts | 180° |
| 2026-05-06 15:28 | 51.27637 | 6.75816 | 126 ft | 7 kts | 166° |
| 2026-05-06 15:28 | 51.27595 | 6.75847 | 128 ft | 7 kts | 152° |
| 2026-05-06 15:28 | 51.27578 | 6.75882 | 128 ft | 3 kts | 87° |
| 2026-05-06 15:29 | 51.27585 | 6.75916 | 127 ft | 3 kts | 65° |
| 2026-05-06 15:29 | 51.27596 | 6.75952 | 128 ft | 2 kts | 63° |
| 2026-05-06 15:29 | 51.27598 | 6.75958 | 126 ft | 0 kts | 63° |